createdAt,value
2023-01-26T00:01:14.830Z,3.22
2023-01-26T00:03:41.666Z,3.33
2023-01-26T00:06:10.744Z,4.72
2023-01-26T00:08:47.853Z,4.20
2023-01-26T00:11:17.069Z,4.60
2023-01-26T00:13:44.069Z,3.63
2023-01-26T00:16:14.032Z,4.50
2023-01-26T00:18:42.218Z,4.97
2023-01-26T00:21:13.366Z,5.85
2023-01-26T00:23:40.061Z,5.95
2023-01-26T00:28:34.177Z,5.75
2023-01-26T00:33:31.165Z,5.90
2023-01-26T00:38:24.502Z,5.13
2023-01-26T00:40:51.264Z,7.35
2023-01-26T00:43:18.043Z,5.97
2023-01-26T00:45:44.710Z,7.53
2023-01-26T00:50:37.851Z,6.35
2023-01-26T00:53:04.515Z,6.78
2023-01-26T00:58:01.813Z,6.88
2023-01-26T01:00:28.909Z,6.53
2023-01-26T01:02:56.355Z,6.70
2023-01-26T01:05:28.187Z,6.90
2023-01-26T01:07:55.144Z,6.82
2023-01-26T01:10:22.095Z,7.05
2023-01-26T01:12:48.799Z,6.63
2023-01-26T01:17:42.387Z,5.20
2023-01-26T01:22:37.938Z,6.28
2023-01-26T01:25:05.029Z,6.53
2023-01-26T01:27:31.828Z,6.45
2023-01-26T01:29:58.502Z,7.10
2023-01-26T01:34:51.727Z,5.53
2023-01-26T01:37:18.680Z,7.32
2023-01-26T01:39:45.284Z,7.22
2023-01-26T01:42:12.307Z,6.30
2023-01-26T01:44:39.268Z,6.38
2023-01-26T01:47:26.642Z,7.15
2023-01-26T01:49:55.018Z,7.38
2023-01-26T01:52:27.195Z,6.88
2023-01-26T01:55:01.961Z,6.20
2023-01-26T01:57:44.785Z,6.75
2023-01-26T02:00:14.437Z,7.65
2023-01-26T02:02:43.560Z,7.13
2023-01-26T02:05:26.911Z,6.97
2023-01-26T02:07:54.931Z,6.38
2023-01-26T02:10:21.900Z,7.35
2023-01-26T02:12:55.361Z,7.50
2023-01-26T02:15:22.115Z,7.45
2023-01-26T02:17:51.697Z,7.50
2023-01-26T02:20:36.962Z,7.07
2023-01-26T02:23:17.203Z,7.10
2023-01-26T02:25:50.021Z,8.02
2023-01-26T02:28:18.792Z,8.82
2023-01-26T02:30:46.418Z,7.93
2023-01-26T02:33:20.404Z,6.45
2023-01-26T02:35:47.043Z,7.22
2023-01-26T02:40:44.884Z,7.90
2023-01-26T02:43:11.700Z,7.78
2023-01-26T02:45:40.313Z,8.93
2023-01-26T02:48:08.054Z,8.52
2023-01-26T02:50:35.231Z,8.60
2023-01-26T02:53:02.581Z,8.45
2023-01-26T02:55:29.572Z,8.68
2023-01-26T02:57:58.818Z,8.27
2023-01-26T03:00:29.896Z,8.85
2023-01-26T03:03:00.682Z,8.77
2023-01-26T03:05:28.353Z,8.50
2023-01-26T03:07:55.435Z,8.00
2023-01-26T03:10:24.159Z,8.98
2023-01-26T03:12:50.847Z,8.27
2023-01-26T03:18:29.888Z,6.90
2023-01-26T03:21:16.934Z,6.68
2023-01-26T03:24:02.395Z,8.35
2023-01-26T03:26:48.042Z,8.65
2023-01-26T03:29:14.948Z,7.25
2023-01-26T03:31:41.732Z,8.38
2023-01-26T03:34:08.408Z,8.27
2023-01-26T03:39:01.614Z,8.45
2023-01-26T03:41:47.162Z,9.73
2023-01-26T03:44:32.547Z,10.35
2023-01-26T03:47:18.527Z,7.95
2023-01-26T03:50:04.109Z,9.32
2023-01-26T03:52:51.999Z,8.77
2023-01-26T03:55:37.664Z,9.60
2023-01-26T03:58:04.285Z,8.93
2023-01-26T04:00:30.989Z,10.00
2023-01-26T04:06:15.519Z,9.82
2023-01-26T04:08:44.609Z,9.65
2023-01-26T04:11:11.233Z,9.93
2023-01-26T04:13:56.356Z,10.07
2023-01-26T04:16:41.989Z,11.60
2023-01-26T04:21:53.847Z,9.60
2023-01-26T04:26:49.325Z,8.70
2023-01-26T04:31:44.189Z,11.13
2023-01-26T04:34:13.783Z,13.40
2023-01-26T04:36:41.158Z,13.73
2023-01-26T04:39:08.098Z,12.20
2023-01-26T04:41:34.926Z,13.70
2023-01-26T04:44:01.762Z,11.90
2023-01-26T04:46:28.408Z,11.98
2023-01-26T04:51:22.753Z,12.07
2023-01-26T04:53:49.954Z,12.93
2023-01-26T04:56:27.859Z,13.32
2023-01-26T04:58:55.388Z,14.45
2023-01-26T05:01:22.150Z,14.07
2023-01-26T05:03:48.863Z,14.80
2023-01-26T05:08:42.377Z,11.98
2023-01-26T05:11:09.289Z,14.15
2023-01-26T05:13:36.250Z,14.35
2023-01-26T05:16:06.267Z,14.80
2023-01-26T05:18:32.950Z,15.32
2023-01-26T05:23:26.555Z,14.95
2023-01-26T05:25:53.285Z,15.55
2023-01-26T05:30:47.704Z,16.73
2023-01-26T05:33:15.788Z,14.95
2023-01-26T05:35:42.843Z,15.95
2023-01-26T05:38:09.515Z,19.80
2023-01-26T05:43:02.825Z,15.70
2023-01-26T05:47:56.219Z,17.00
2023-01-26T05:52:49.906Z,15.43
2023-01-26T05:55:16.637Z,19.77
2023-01-26T05:57:43.338Z,16.65
2023-01-26T06:00:12.418Z,17.85
2023-01-26T06:02:39.560Z,19.40
2023-01-26T06:05:06.891Z,19.90
2023-01-26T06:07:34.051Z,17.92
2023-01-26T06:10:00.782Z,16.95
2023-01-26T06:12:31.486Z,17.13
2023-01-26T06:14:58.674Z,17.45
2023-01-26T06:17:25.365Z,18.55
2023-01-26T06:19:52.021Z,17.85
2023-01-26T06:24:45.622Z,15.57
2023-01-26T06:27:14.464Z,17.55
2023-01-26T06:29:41.919Z,18.55
2023-01-26T06:32:11.583Z,18.05
2023-01-26T06:34:38.336Z,19.48
2023-01-26T06:37:05.483Z,18.38
2023-01-26T06:39:32.171Z,20.55
2023-01-26T06:44:25.424Z,15.82
2023-01-26T06:46:52.111Z,17.75
2023-01-26T06:49:18.870Z,18.25
2023-01-26T06:51:45.524Z,17.38
2023-01-26T06:56:40.140Z,17.63
2023-01-26T06:59:06.907Z,18.38
2023-01-26T07:01:37.200Z,17.05
2023-01-26T07:04:03.986Z,16.13
2023-01-26T07:06:30.761Z,17.38
2023-01-26T07:08:57.421Z,15.70
2023-01-26T07:13:52.416Z,15.15
2023-01-26T07:16:19.145Z,15.15
2023-01-26T07:18:45.900Z,16.48
2023-01-26T07:21:21.434Z,15.23
2023-01-26T07:23:48.330Z,15.13
2023-01-26T07:26:15.095Z,13.43
2023-01-26T07:28:41.853Z,12.90
2023-01-26T07:31:10.584Z,12.88
2023-01-26T07:33:37.567Z,15.48
2023-01-26T07:36:06.349Z,13.55
2023-01-26T07:38:34.196Z,12.93
2023-01-26T07:41:05.765Z,14.98
2023-01-26T07:43:34.529Z,14.38
2023-01-26T07:46:01.369Z,15.75
2023-01-26T07:48:29.823Z,14.60
2023-01-26T07:51:00.008Z,14.77
2023-01-26T07:53:29.303Z,13.60
2023-01-26T07:56:09.522Z,12.50
2023-01-26T07:58:36.277Z,11.85
2023-01-26T08:01:11.543Z,11.85
2023-01-26T08:03:38.883Z,12.52
2023-01-26T08:06:06.852Z,14.65
2023-01-26T08:08:34.067Z,13.07
2023-01-26T08:11:02.029Z,12.05
2023-01-26T08:13:35.314Z,10.60
2023-01-26T08:16:12.592Z,11.02
2023-01-26T08:18:44.849Z,11.07
2023-01-26T08:21:14.435Z,13.02
2023-01-26T08:23:41.139Z,12.77
2023-01-26T08:28:36.748Z,9.98
2023-01-26T08:31:11.170Z,11.27
2023-01-26T08:33:40.357Z,10.75
2023-01-26T08:36:10.089Z,11.88
2023-01-26T08:38:36.943Z,9.50
2023-01-26T08:41:03.817Z,9.63
2023-01-26T08:43:30.789Z,10.43
2023-01-26T08:45:57.837Z,9.35
2023-01-26T08:48:24.506Z,10.75
2023-01-26T08:53:21.972Z,8.43
2023-01-26T08:55:48.937Z,8.20
2023-01-26T08:58:16.052Z,9.68
2023-01-26T09:00:42.723Z,9.80
2023-01-26T09:05:38.237Z,8.15
2023-01-26T09:08:06.240Z,9.07
2023-01-26T09:10:33.606Z,10.05
2023-01-26T09:13:01.152Z,9.10
2023-01-26T09:15:28.108Z,8.68
2023-01-26T09:17:54.812Z,11.20
2023-01-26T09:20:21.508Z,9.98
2023-01-26T09:25:15.184Z,8.73
2023-01-26T09:27:41.898Z,10.05
2023-01-26T09:30:09.567Z,11.50
2023-01-26T09:32:36.201Z,10.82
2023-01-26T09:37:29.615Z,9.85
2023-01-26T09:39:56.251Z,10.75
2023-01-26T09:45:07.945Z,10.85
2023-01-26T09:48:01.580Z,11.15
2023-01-26T09:50:40.674Z,10.68
2023-01-26T09:53:14.446Z,9.23
2023-01-26T09:55:42.740Z,10.15
2023-01-26T09:58:22.211Z,12.88
2023-01-26T10:00:52.424Z,12.88
2023-01-26T10:03:44.001Z,10.80
2023-01-26T10:06:28.269Z,12.80
2023-01-26T10:08:57.558Z,10.60
2023-01-26T10:11:28.849Z,12.50
2023-01-26T10:14:01.746Z,12.38
2023-01-26T10:16:28.855Z,11.95
2023-01-26T10:18:55.555Z,11.80
2023-01-26T10:21:26.624Z,11.80
2023-01-26T10:23:53.756Z,12.75
2023-01-26T10:26:23.397Z,13.32
2023-01-26T10:28:52.291Z,12.55
2023-01-26T10:31:22.387Z,12.02
2023-01-26T10:33:55.552Z,12.77
2023-01-26T10:38:51.421Z,11.27
2023-01-26T10:41:27.041Z,14.43
2023-01-26T10:43:55.176Z,13.90
2023-01-26T10:46:42.401Z,13.68
2023-01-26T10:49:09.027Z,13.77
2023-01-26T10:54:23.653Z,12.55
2023-01-26T10:57:00.280Z,14.63
2023-01-26T10:59:31.949Z,14.88
2023-01-26T11:02:21.084Z,14.80
2023-01-26T11:05:06.651Z,14.80
2023-01-26T11:07:42.544Z,15.75
2023-01-26T11:10:35.465Z,14.45
2023-01-26T11:13:22.535Z,14.55
2023-01-26T11:15:53.109Z,15.88
2023-01-26T11:18:34.008Z,15.32
2023-01-26T11:21:32.066Z,16.20
2023-01-26T11:24:23.877Z,13.50
2023-01-26T11:27:25.986Z,13.35
2023-01-26T11:30:22.894Z,15.25
2023-01-26T11:33:06.655Z,14.20
2023-01-26T11:35:42.166Z,14.63
2023-01-26T11:38:30.226Z,15.50
2023-01-26T11:41:12.289Z,15.38
2023-01-26T11:44:05.945Z,14.45
2023-01-26T11:46:52.728Z,15.23
2023-01-26T11:49:19.435Z,15.20
2023-01-26T11:51:58.160Z,15.27
2023-01-26T11:54:47.120Z,14.10
2023-01-26T11:57:27.788Z,13.80
2023-01-26T12:00:00.359Z,15.88
2023-01-26T12:02:34.265Z,15.15
2023-01-26T12:05:28.405Z,15.10
2023-01-26T12:08:02.096Z,14.77
2023-01-26T12:10:45.706Z,15.05
2023-01-26T12:13:16.806Z,15.35
2023-01-26T12:15:55.175Z,14.95
2023-01-26T12:18:47.126Z,14.80
2023-01-26T12:21:24.808Z,14.15
2023-01-26T12:24:39.568Z,13.88
2023-01-26T12:27:09.653Z,12.82
2023-01-26T12:29:54.618Z,13.70
2023-01-26T12:32:22.631Z,14.68
2023-01-26T12:34:49.584Z,14.07
2023-01-26T12:37:51.998Z,13.95
2023-01-26T12:40:32.801Z,13.85
2023-01-26T12:43:20.981Z,13.95
2023-01-26T12:45:51.370Z,13.05
2023-01-26T12:48:27.180Z,14.50
2023-01-26T12:51:08.886Z,12.45
2023-01-26T12:53:49.053Z,13.13
2023-01-26T12:56:24.059Z,12.10
2023-01-26T12:58:52.631Z,13.85
2023-01-26T13:01:24.903Z,13.75
2023-01-26T13:03:53.305Z,13.48
2023-01-26T13:06:24.568Z,14.02
2023-01-26T13:09:05.907Z,14.00
2023-01-26T13:11:52.693Z,13.55
2023-01-26T13:14:58.136Z,13.77
2023-01-26T13:17:27.269Z,13.23
2023-01-26T13:19:59.672Z,15.18
2023-01-26T13:22:26.376Z,14.20
2023-01-26T13:27:35.092Z,13.95
2023-01-26T13:30:01.987Z,13.52
2023-01-26T13:32:28.580Z,13.35
2023-01-26T13:37:45.096Z,12.45
2023-01-26T13:40:31.600Z,10.27
2023-01-26T13:43:25.928Z,12.57
2023-01-26T13:46:29.541Z,11.27
2023-01-26T13:48:57.131Z,11.10
2023-01-26T13:51:27.556Z,10.98
2023-01-26T13:54:14.199Z,10.80
2023-01-26T13:56:42.605Z,10.75
2023-01-26T13:59:14.148Z,10.52
2023-01-26T14:01:45.768Z,10.63
2023-01-26T14:04:21.679Z,10.90
2023-01-26T14:06:56.975Z,9.80
2023-01-26T14:09:27.439Z,12.00
2023-01-26T14:12:01.180Z,10.23
2023-01-26T14:14:31.144Z,10.43
2023-01-26T14:16:59.481Z,9.35
2023-01-26T14:19:27.780Z,10.20
2023-01-26T14:21:55.787Z,9.23
2023-01-26T14:24:32.051Z,9.00
2023-01-26T14:26:59.190Z,10.68
2023-01-26T14:29:28.281Z,8.35
2023-01-26T14:31:57.250Z,10.40
2023-01-26T14:34:27.283Z,10.38
2023-01-26T14:37:17.253Z,9.68
2023-01-26T14:39:47.777Z,9.43
2023-01-26T14:42:21.179Z,9.05
2023-01-26T14:44:47.866Z,9.02
2023-01-26T14:47:19.820Z,8.35
2023-01-26T14:49:53.698Z,8.52
2023-01-26T14:52:29.571Z,6.95
2023-01-26T14:54:58.689Z,8.00
2023-01-26T14:57:28.024Z,7.65
2023-01-26T14:59:57.805Z,7.38
2023-01-26T15:02:38.676Z,6.60
2023-01-26T15:05:20.773Z,7.20
2023-01-26T15:07:56.501Z,6.63
2023-01-26T15:10:38.243Z,6.88
2023-01-26T15:13:10.995Z,7.22
2023-01-26T15:15:39.997Z,9.15
2023-01-26T15:18:19.147Z,7.63
2023-01-26T15:21:00.610Z,7.53
2023-01-26T15:23:34.430Z,7.43
2023-01-26T15:26:06.367Z,6.45
2023-01-26T15:28:33.617Z,6.80
2023-01-26T15:31:00.866Z,7.45
2023-01-26T15:33:41.044Z,7.85
2023-01-26T15:36:25.121Z,6.53
2023-01-26T15:39:13.643Z,7.00
2023-01-26T15:41:45.707Z,6.35
2023-01-26T15:44:17.755Z,6.80
2023-01-26T15:46:44.919Z,6.70
2023-01-26T15:49:13.304Z,6.35
2023-01-26T15:51:40.128Z,6.65
2023-01-26T15:54:06.850Z,6.40
2023-01-26T15:56:33.567Z,6.57
2023-01-26T15:59:00.312Z,7.05
2023-01-26T16:01:27.254Z,6.72
2023-01-26T16:03:54.011Z,7.82
2023-01-26T16:06:27.162Z,6.30
2023-01-26T16:08:55.113Z,6.22
2023-01-26T16:11:24.683Z,6.72
2023-01-26T16:14:02.819Z,5.57
2023-01-26T16:16:31.122Z,6.28
2023-01-26T16:18:57.807Z,5.72
2023-01-26T16:23:58.119Z,4.60
2023-01-26T16:26:26.398Z,5.82
2023-01-26T16:28:53.170Z,6.13
2023-01-26T16:31:23.467Z,6.95
2023-01-26T16:33:51.002Z,6.30
2023-01-26T16:36:19.201Z,5.40
2023-01-26T16:38:47.060Z,5.68
2023-01-26T16:41:28.427Z,6.75
2023-01-26T16:43:57.058Z,5.55
2023-01-26T16:46:24.662Z,5.72
2023-01-26T16:48:51.646Z,5.47
2023-01-26T16:51:21.405Z,5.78
2023-01-26T16:53:48.692Z,6.10
2023-01-26T16:56:16.527Z,5.63
2023-01-26T16:58:43.410Z,6.03
2023-01-26T17:01:23.658Z,5.35
2023-01-26T17:03:50.810Z,5.95
2023-01-26T17:06:19.109Z,5.22
2023-01-26T17:08:46.448Z,5.97
2023-01-26T17:11:26.099Z,6.55
2023-01-26T17:13:56.059Z,5.90
2023-01-26T17:16:25.914Z,5.88
2023-01-26T17:18:52.650Z,7.13
2023-01-26T17:21:20.093Z,5.40
2023-01-26T17:23:51.882Z,5.70
2023-01-26T17:26:20.173Z,5.85
2023-01-26T17:28:49.034Z,5.78
2023-01-26T17:31:20.663Z,5.50
2023-01-26T17:33:48.855Z,6.38
2023-01-26T17:36:17.465Z,6.32
2023-01-26T17:38:44.593Z,6.32
2023-01-26T17:41:11.328Z,6.60
2023-01-26T17:43:38.004Z,5.80
2023-01-26T17:46:13.476Z,5.72
2023-01-26T17:48:40.246Z,5.32
2023-01-26T17:51:12.185Z,5.72
2023-01-26T17:53:41.057Z,5.68
2023-01-26T17:56:13.116Z,5.88
2023-01-26T17:58:40.373Z,5.57
2023-01-26T18:01:08.916Z,5.25
2023-01-26T18:03:39.944Z,5.20
2023-01-26T18:06:06.721Z,5.53
2023-01-26T18:08:33.464Z,6.57
2023-01-26T18:11:01.837Z,6.22
2023-01-26T18:13:30.344Z,6.50
2023-01-26T18:15:57.349Z,6.03
2023-01-26T18:18:25.435Z,6.13
2023-01-26T18:20:52.280Z,6.55
2023-01-26T18:23:19.824Z,6.28
2023-01-26T18:25:46.582Z,5.40
2023-01-26T18:28:14.449Z,5.70
2023-01-26T18:30:41.515Z,5.40
2023-01-26T18:33:09.401Z,5.88
2023-01-26T18:35:36.261Z,5.38
2023-01-26T18:38:04.579Z,5.28
2023-01-26T18:40:31.197Z,5.45
2023-01-26T18:45:24.504Z,4.72
2023-01-26T18:50:18.438Z,5.78
2023-01-26T18:52:45.145Z,6.05
2023-01-26T18:55:12.313Z,6.22
2023-01-26T18:57:39.623Z,6.03
2023-01-26T19:00:08.139Z,6.13
2023-01-26T19:02:39.434Z,6.15
2023-01-26T19:05:07.450Z,6.18
2023-01-26T19:07:35.021Z,6.63
2023-01-26T19:10:01.983Z,8.00
2023-01-26T19:12:28.682Z,6.75
2023-01-26T19:14:55.359Z,8.15
2023-01-26T19:17:24.313Z,9.18
2023-01-26T19:19:59.495Z,8.05
2023-01-26T19:22:26.229Z,7.43
2023-01-26T19:24:52.984Z,7.95
2023-01-26T19:27:19.829Z,7.60
2023-01-26T19:29:46.517Z,5.85
2023-01-26T19:32:13.223Z,5.75
2023-01-26T19:34:39.946Z,6.05
2023-01-26T19:37:06.574Z,6.30
2023-01-26T19:39:33.169Z,6.75
2023-01-26T19:41:59.886Z,6.32
2023-01-26T19:44:27.079Z,5.75
2023-01-26T19:46:54.572Z,5.15
2023-01-26T19:49:21.775Z,5.60
2023-01-26T19:51:48.849Z,5.80
2023-01-26T19:54:15.931Z,5.95
2023-01-26T19:56:42.648Z,5.82
2023-01-26T19:59:11.435Z,5.50
2023-01-26T20:01:39.440Z,6.25
2023-01-26T20:04:09.344Z,5.03
2023-01-26T20:06:37.260Z,5.63
2023-01-26T20:09:06.525Z,6.07
2023-01-26T20:11:34.150Z,5.40
2023-01-26T20:14:03.953Z,6.30
2023-01-26T20:16:30.849Z,5.78
2023-01-26T20:18:59.182Z,6.38
2023-01-26T20:21:27.077Z,5.20
2023-01-26T20:23:55.825Z,6.32
2023-01-26T20:26:24.593Z,5.93
2023-01-26T20:28:51.752Z,6.03
2023-01-26T20:31:22.006Z,6.53
2023-01-26T20:33:50.271Z,5.97
2023-01-26T20:36:19.460Z,6.00
2023-01-26T20:38:47.600Z,6.03
2023-01-26T20:41:17.565Z,6.13
2023-01-26T20:43:58.759Z,6.88
2023-01-26T20:46:32.155Z,6.03
2023-01-26T20:48:59.637Z,6.07
2023-01-26T20:51:30.591Z,5.80
2023-01-26T20:53:58.184Z,5.70
2023-01-26T20:56:25.080Z,6.10
2023-01-26T20:58:53.359Z,6.90
2023-01-26T21:01:20.843Z,6.50
2023-01-26T21:03:47.691Z,6.72
2023-01-26T21:06:18.489Z,7.05
2023-01-26T21:08:49.673Z,6.90
2023-01-26T21:11:17.300Z,6.70
2023-01-26T21:13:45.209Z,6.70
2023-01-26T21:16:16.327Z,5.97
2023-01-26T21:18:44.656Z,6.00
2023-01-26T21:21:13.662Z,6.40
2023-01-26T21:23:40.407Z,6.25
2023-01-26T21:26:13.139Z,5.85
2023-01-26T21:28:40.733Z,5.85
2023-01-26T21:31:16.557Z,6.30
2023-01-26T21:33:45.457Z,6.55
2023-01-26T21:36:15.081Z,5.85
2023-01-26T21:38:44.157Z,5.95
2023-01-26T21:41:31.791Z,6.63
2023-01-26T21:44:05.942Z,7.35
2023-01-26T21:46:33.717Z,6.95
2023-01-26T21:49:00.688Z,5.88
2023-01-26T21:51:46.384Z,6.75
2023-01-26T21:54:13.806Z,5.70
2023-01-26T21:56:40.497Z,4.82
2023-01-26T21:59:10.080Z,4.90
2023-01-26T22:01:39.191Z,4.22
2023-01-26T22:04:09.186Z,3.83
2023-01-26T22:06:37.197Z,4.00
2023-01-26T22:09:05.366Z,3.92
2023-01-26T22:11:32.442Z,4.57
2023-01-26T22:13:59.040Z,3.65
2023-01-26T22:16:26.426Z,4.45
2023-01-26T22:18:53.263Z,4.03
2023-01-26T22:21:20.442Z,4.15
2023-01-26T22:23:47.257Z,5.32
2023-01-26T22:26:22.144Z,4.35
2023-01-26T22:28:53.966Z,5.80
2023-01-26T22:31:23.437Z,4.43
2023-01-26T22:33:50.562Z,4.90
2023-01-26T22:36:18.566Z,4.78
2023-01-26T22:38:46.263Z,5.22
2023-01-26T22:41:21.739Z,4.82
2023-01-26T22:43:49.780Z,4.78
2023-01-26T22:46:19.012Z,5.32
2023-01-26T22:48:46.108Z,5.60
2023-01-26T22:51:17.999Z,5.47
2023-01-26T22:53:45.235Z,5.63
2023-01-26T22:56:12.619Z,6.75
2023-01-26T22:58:56.509Z,5.57
2023-01-26T23:01:24.600Z,5.90
2023-01-26T23:03:53.237Z,6.30
2023-01-26T23:06:20.661Z,5.78
2023-01-26T23:08:47.644Z,5.18
2023-01-26T23:11:17.413Z,5.35
2023-01-26T23:13:45.259Z,5.53
2023-01-26T23:16:12.960Z,5.55
2023-01-26T23:18:40.482Z,5.72
2023-01-26T23:21:08.433Z,5.10
2023-01-26T23:23:35.237Z,4.50
2023-01-26T23:26:02.391Z,5.10
2023-01-26T23:28:35.010Z,5.65
2023-01-26T23:31:02.254Z,5.47
2023-01-26T23:33:31.175Z,6.70
2023-01-26T23:35:58.299Z,5.38
2023-01-26T23:38:26.640Z,6.15
2023-01-26T23:40:53.384Z,6.45
2023-01-26T23:43:20.563Z,6.03
2023-01-26T23:45:50.577Z,6.30
2023-01-26T23:48:17.666Z,5.25
2023-01-26T23:50:44.361Z,5.82
2023-01-26T23:53:11.481Z,5.28
2023-01-26T23:55:41.777Z,5.50
2023-01-26T23:58:09.400Z,5.32
